ROMMA est une association bénévole à but non lucratif. Votre soutien est indispensable : ADHERER à ROMMA ou FAIRE un DON

Crempigny-Bonneguête - (74, Haute-Savoie)

Albanais-Montagne des Princes (500 m)   Longitude: 05° 54' 5" E   Latitude: 45° 57' 0" N Station partenaire n°10
 

Détail journalier du     <<     >>

Température Precipitation Humidité Pression Vent Dir Rafale Dir. rafale Ensol. 20 cm au dessus du sol
Heure (°C) (mm) (%) (hPa) (km/h) (km/h) (min) (°C)
01:00 10.606210152NO8O08.9
02:00 9.706510151O8OSO07.2
03:00 9.406410141NO6NO06.7
04:00 8.206610142ONO5ONO06.1
05:00 7.706510142N6N06.1
06:00 7.206810141ONO5ONO05.0
07:00 7.106810141ONO5ONO04.4
08:00 6.606910141ONO5ONO05.0
09:00 7.107310141ONO3ONO205.6
10:00 8.806810141OSO5ONO609.4
11:00 10.905810133SO8SSO6013.9
12:00 13.805710133SE11ESE6016.7
13:00 16.204310126ESE15SE5016.7
14:00 16.604110118SE26SO2017.2
15:00 17.0038101018SO47OSO2518.9
16:00 16.9040101026SO50SO5518.3
17:00 16.7036101024SO52OSO5017.8
18:00 15.8034101022SO60OSO6015.6
19:00 15.0028101015S39S4014.4
20:00 14.1037101014S48SO513.3
21:00 13.2040101011SSO34S012.2
22:00 12.5048101014SO35SO011.7
23:00 11.9052101011SO34S011.1
minuit 11.4052101012SSO45SO010.6

Graphique du 02-04-2019

 

Serveur OMMA